sensor_id;sensor_type;location;lat;lon;timestamp;pressure;altitude;pressure_sealevel;temperature;humidity
15884;BME280;8040;50.254;10.960;2023-09-18T00:02:07;97803.59;;;19.27;86.25
15884;BME280;8040;50.254;10.960;2023-09-18T00:04:32;97784.06;;;19.13;86.52
15884;BME280;8040;50.254;10.960;2023-09-18T00:06:59;97811.22;;;19.37;86.62
15884;BME280;8040;50.254;10.960;2023-09-18T00:09:25;97805.63;;;19.30;86.59
15884;BME280;8040;50.254;10.960;2023-09-18T00:11:51;97795.34;;;19.27;86.82
15884;BME280;8040;50.254;10.960;2023-09-18T00:14:18;97780.22;;;19.18;86.98
15884;BME280;8040;50.254;10.960;2023-09-18T00:16:43;97799.44;;;19.37;87.05
15884;BME280;8040;50.254;10.960;2023-09-18T00:19:09;97792.28;;;19.32;87.09
15884;BME280;8040;50.254;10.960;2023-09-18T00:21:36;97801.69;;;19.31;86.81
15884;BME280;8040;50.254;10.960;2023-09-18T00:24:01;97796.84;;;19.25;87.01
15884;BME280;8040;50.254;10.960;2023-09-18T00:26:26;97795.13;;;19.17;86.72
15884;BME280;8040;50.254;10.960;2023-09-18T00:28:52;97787.56;;;19.10;86.86
15884;BME280;8040;50.254;10.960;2023-09-18T00:31:18;97797.44;;;19.15;86.91
15884;BME280;8040;50.254;10.960;2023-09-18T00:33:44;97781.25;;;19.10;86.82
15884;BME280;8040;50.254;10.960;2023-09-18T00:36:09;97798.31;;;19.19;86.72
15884;BME280;8040;50.254;10.960;2023-09-18T00:38:35;97794.50;;;19.23;87.07
15884;BME280;8040;50.254;10.960;2023-09-18T00:41:00;97763.47;;;19.04;86.68
15884;BME280;8040;50.254;10.960;2023-09-18T00:43:26;97765.63;;;19.14;86.97
15884;BME280;8040;50.254;10.960;2023-09-18T00:45:51;97781.09;;;19.22;86.76
15884;BME280;8040;50.254;10.960;2023-09-18T00:48:17;97760.53;;;19.16;86.74
15884;BME280;8040;50.254;10.960;2023-09-18T00:50:46;97770.16;;;19.25;86.62
15884;BME280;8040;50.254;10.960;2023-09-18T00:53:23;97744.00;;;19.12;86.97
15884;BME280;8040;50.254;10.960;2023-09-18T00:55:54;97718.56;;;18.96;87.00
15884;BME280;8040;50.254;10.960;2023-09-18T00:58:21;97743.56;;;19.10;86.94
15884;BME280;8040;50.254;10.960;2023-09-18T01:00:47;97749.44;;;19.09;86.97
15884;BME280;8040;50.254;10.960;2023-09-18T01:03:15;97731.53;;;18.96;87.04
15884;BME280;8040;50.254;10.960;2023-09-18T01:05:43;97720.91;;;18.94;86.55
15884;BME280;8040;50.254;10.960;2023-09-18T01:08:09;97719.97;;;18.87;86.71
15884;BME280;8040;50.254;10.960;2023-09-18T01:10:48;97752.94;;;19.09;86.66
15884;BME280;8040;50.254;10.960;2023-09-18T01:13:22;97756.81;;;19.05;86.98
15884;BME280;8040;50.254;10.960;2023-09-18T01:15:54;97731.88;;;18.94;86.91
15884;BME280;8040;50.254;10.960;2023-09-18T01:18:23;97711.66;;;18.83;86.92
15884;BME280;8040;50.254;10.960;2023-09-18T01:20:48;97703.78;;;18.82;86.87
15884;BME280;8040;50.254;10.960;2023-09-18T01:23:13;97728.78;;;18.96;87.31
15884;BME280;8040;50.254;10.960;2023-09-18T01:25:39;97726.38;;;18.94;87.11
15884;BME280;8040;50.254;10.960;2023-09-18T01:28:04;97742.28;;;19.04;87.08
15884;BME280;8040;50.254;10.960;2023-09-18T01:30:30;97743.41;;;19.03;87.28
15884;BME280;8040;50.254;10.960;2023-09-18T01:32:58;97731.03;;;18.90;87.39
15884;BME280;8040;50.254;10.960;2023-09-18T01:35:26;97736.63;;;18.97;87.72
15884;BME280;8040;50.254;10.960;2023-09-18T01:37:59;97682.28;;;18.65;87.45
15884;BME280;8040;50.254;10.960;2023-09-18T01:40:25;97676.81;;;18.65;87.55
15884;BME280;8040;50.254;10.960;2023-09-18T01:42:51;97739.84;;;18.99;87.59
15884;BME280;8040;50.254;10.960;2023-09-18T01:45:17;97681.13;;;18.66;87.59
15884;BME280;8040;50.254;10.960;2023-09-18T01:47:42;97681.19;;;18.69;87.48
15884;BME280;8040;50.254;10.960;2023-09-18T01:50:08;97707.25;;;18.79;87.73
15884;BME280;8040;50.254;10.960;2023-09-18T01:52:33;97693.03;;;18.73;87.69
15884;BME280;8040;50.254;10.960;2023-09-18T01:55:02;97703.00;;;18.81;87.75
15884;BME280;8040;50.254;10.960;2023-09-18T02:01:19;97679.59;;;18.68;87.77
15884;BME280;8040;50.254;10.960;2023-09-18T02:03:44;97687.56;;;18.73;87.87
15884;BME280;8040;50.254;10.960;2023-09-18T02:06:11;97693.88;;;18.77;87.80
15884;BME280;8040;50.254;10.960;2023-09-18T02:08:36;97684.47;;;18.78;87.70
15884;BME280;8040;50.254;10.960;2023-09-18T02:11:01;97699.50;;;18.84;87.66
15884;BME280;8040;50.254;10.960;2023-09-18T02:13:28;97680.78;;;18.67;87.32
15884;BME280;8040;50.254;10.960;2023-09-18T02:15:53;97674.00;;;18.61;87.65
15884;BME280;8040;50.254;10.960;2023-09-18T02:18:19;97699.16;;;18.86;87.75
15884;BME280;8040;50.254;10.960;2023-09-18T02:20:45;97677.69;;;18.72;87.62
15884;BME280;8040;50.254;10.960;2023-09-18T02:23:19;97707.44;;;18.89;87.42
15884;BME280;8040;50.254;10.960;2023-09-18T02:25:44;97698.78;;;18.87;87.59
15884;BME280;8040;50.254;10.960;2023-09-18T02:28:10;97685.41;;;18.86;87.37
15884;BME280;8040;50.254;10.960;2023-09-18T02:30:35;97636.25;;;18.58;87.34
15884;BME280;8040;50.254;10.960;2023-09-18T02:33:01;97659.34;;;18.76;87.13
15884;BME280;8040;50.254;10.960;2023-09-18T02:35:28;97643.88;;;18.68;86.96
15884;BME280;8040;50.254;10.960;2023-09-18T02:37:54;97635.59;;;18.65;87.06
15884;BME280;8040;50.254;10.960;2023-09-18T02:40:19;97644.31;;;18.70;86.91
15884;BME280;8040;50.254;10.960;2023-09-18T02:42:44;97650.78;;;18.81;86.61
15884;BME280;8040;50.254;10.960;2023-09-18T02:45:11;97640.09;;;18.76;86.72
15884;BME280;8040;50.254;10.960;2023-09-18T02:47:36;97637.28;;;18.73;86.82
15884;BME280;8040;50.254;10.960;2023-09-18T02:50:07;97635.75;;;18.75;87.12
15884;BME280;8040;50.254;10.960;2023-09-18T02:52:32;97640.47;;;18.75;87.18
15884;BME280;8040;50.254;10.960;2023-09-18T02:54:57;97647.63;;;18.79;86.98
15884;BME280;8040;50.254;10.960;2023-09-18T02:57:23;97649.19;;;18.80;87.09
15884;BME280;8040;50.254;10.960;2023-09-18T02:59:48;97632.59;;;18.73;87.05
15884;BME280;8040;50.254;10.960;2023-09-18T03:02:13;97642.91;;;18.80;86.92
15884;BME280;8040;50.254;10.960;2023-09-18T03:04:39;97644.47;;;18.81;87.01
15884;BME280;8040;50.254;10.960;2023-09-18T03:07:12;97631.91;;;18.80;86.81
15884;BME280;8040;50.254;10.960;2023-09-18T03:09:38;97637.97;;;18.89;86.61
15884;BME280;8040;50.254;10.960;2023-09-18T03:12:03;97587.97;;;18.57;86.42
15884;BME280;8040;50.254;10.960;2023-09-18T03:14:29;97621.66;;;18.77;86.58
15884;BME280;8040;50.254;10.960;2023-09-18T03:16:54;97655.72;;;18.95;86.62
15884;BME280;8040;50.254;10.960;2023-09-18T03:19:19;97658.09;;;18.96;86.46
15884;BME280;8040;50.254;10.960;2023-09-18T03:21:47;97598.00;;;18.72;86.56
15884;BME280;8040;50.254;10.960;2023-09-18T03:24:13;97613.94;;;18.86;86.41
15884;BME280;8040;50.254;10.960;2023-09-18T03:26:38;97589.34;;;18.70;86.45
15884;BME280;8040;50.254;10.960;2023-09-18T03:29:04;97627.84;;;18.96;86.65
15884;BME280;8040;50.254;10.960;2023-09-18T03:31:30;97606.47;;;18.83;86.56
15884;BME280;8040;50.254;10.960;2023-09-18T03:33:55;97613.69;;;18.94;86.58
15884;BME280;8040;50.254;10.960;2023-09-18T03:36:21;97600.25;;;18.89;86.26
15884;BME280;8040;50.254;10.960;2023-09-18T03:38:48;97584.09;;;18.84;86.12
15884;BME280;8040;50.254;10.960;2023-09-18T03:41:14;97582.66;;;18.94;86.06
15884;BME280;8040;50.254;10.960;2023-09-18T03:43:39;97541.94;;;18.73;85.90
15884;BME280;8040;50.254;10.960;2023-09-18T03:46:06;97571.66;;;18.94;85.66
15884;BME280;8040;50.254;10.960;2023-09-18T03:48:32;97558.63;;;18.87;85.56
15884;BME280;8040;50.254;10.960;2023-09-18T03:51:07;97557.16;;;18.93;85.43
15884;BME280;8040;50.254;10.960;2023-09-18T03:53:37;97528.19;;;18.73;85.25
15884;BME280;8040;50.254;10.960;2023-09-18T03:56:03;97517.94;;;18.70;84.79
15884;BME280;8040;50.254;10.960;2023-09-18T03:58:28;97556.41;;;18.96;84.83
15884;BME280;8040;50.254;10.960;2023-09-18T04:00:54;97554.72;;;18.88;84.37
15884;BME280;8040;50.254;10.960;2023-09-18T04:03:19;97575.69;;;19.00;84.45
15884;BME280;8040;50.254;10.960;2023-09-18T04:05:44;97566.22;;;18.97;84.03
15884;BME280;8040;50.254;10.960;2023-09-18T04:08:10;97561.44;;;18.91;83.69
15884;BME280;8040;50.254;10.960;2023-09-18T04:10:36;97589.72;;;19.17;83.46
15884;BME280;8040;50.254;10.960;2023-09-18T04:16:51;97554.44;;;18.97;83.50
15884;BME280;8040;50.254;10.960;2023-09-18T04:19:17;97581.31;;;19.07;83.47
15884;BME280;8040;50.254;10.960;2023-09-18T04:21:42;97575.38;;;19.05;83.34
15884;BME280;8040;50.254;10.960;2023-09-18T04:24:07;97571.09;;;19.07;83.41
15884;BME280;8040;50.254;10.960;2023-09-18T04:26:33;97557.31;;;19.04;83.46
15884;BME280;8040;50.254;10.960;2023-09-18T04:29:01;97577.13;;;19.16;83.33
15884;BME280;8040;50.254;10.960;2023-09-18T04:31:27;97594.25;;;19.32;83.00
15884;BME280;8040;50.254;10.960;2023-09-18T04:33:53;97560.31;;;19.21;82.73
15884;BME280;8040;50.254;10.960;2023-09-18T04:36:19;97606.53;;;19.38;82.65
15884;BME280;8040;50.254;10.960;2023-09-18T04:39:10;97698.63;;;19.48;81.86
15884;BME280;8040;50.254;10.960;2023-09-18T04:41:35;97692.75;;;19.49;81.44
15884;BME280;8040;50.254;10.960;2023-09-18T04:44:00;97671.44;;;19.43;81.26
15884;BME280;8040;50.254;10.960;2023-09-18T04:46:26;97687.00;;;19.58;80.75
15884;BME280;8040;50.254;10.960;2023-09-18T04:48:51;97659.53;;;19.61;80.30
15884;BME280;8040;50.254;10.960;2023-09-18T04:51:17;97649.72;;;19.64;79.88
15884;BME280;8040;50.254;10.960;2023-09-18T04:53:42;97618.88;;;19.51;79.46
15884;BME280;8040;50.254;10.960;2023-09-18T04:56:08;97625.81;;;19.68;79.43
15884;BME280;8040;50.254;10.960;2023-09-18T04:58:35;97608.56;;;19.71;79.26
15884;BME280;8040;50.254;10.960;2023-09-18T05:01:05;97577.38;;;19.63;79.02
15884;BME280;8040;50.254;10.960;2023-09-18T05:03:34;97590.19;;;19.78;79.10
15884;BME280;8040;50.254;10.960;2023-09-18T05:06:00;97571.16;;;19.66;78.99
15884;BME280;8040;50.254;10.960;2023-09-18T05:08:25;97598.44;;;19.78;78.56
15884;BME280;8040;50.254;10.960;2023-09-18T05:10:51;97596.53;;;19.86;77.81
15884;BME280;8040;50.254;10.960;2023-09-18T05:13:16;97592.13;;;19.78;77.87
15884;BME280;8040;50.254;10.960;2023-09-18T05:15:41;97585.94;;;19.84;77.86
15884;BME280;8040;50.254;10.960;2023-09-18T05:18:07;97577.59;;;19.77;78.09
15884;BME280;8040;50.254;10.960;2023-09-18T05:20:34;97581.28;;;19.92;78.04
15884;BME280;8040;50.254;10.960;2023-09-18T05:23:01;97554.84;;;19.84;77.77
15884;BME280;8040;50.254;10.960;2023-09-18T05:25:29;97510.44;;;19.52;77.90
15884;BME280;8040;50.254;10.960;2023-09-18T05:27:58;97558.06;;;19.89;77.96
15884;BME280;8040;50.254;10.960;2023-09-18T05:30:26;97554.16;;;19.90;78.00
15884;BME280;8040;50.254;10.960;2023-09-18T05:32:56;97565.94;;;19.91;78.06
15884;BME280;8040;50.254;10.960;2023-09-18T05:35:22;97567.13;;;19.93;78.21
15884;BME280;8040;50.254;10.960;2023-09-18T05:37:49;97560.09;;;19.96;78.41
15884;BME280;8040;50.254;10.960;2023-09-18T05:40:17;97574.34;;;20.01;78.78
15884;BME280;8040;50.254;10.960;2023-09-18T05:42:43;97560.41;;;19.91;79.27
15884;BME280;8040;50.254;10.960;2023-09-18T05:45:14;97571.50;;;19.98;79.32
15884;BME280;8040;50.254;10.960;2023-09-18T05:47:40;97575.13;;;20.05;79.41
15884;BME280;8040;50.254;10.960;2023-09-18T05:50:06;97606.03;;;20.21;78.49
15884;BME280;8040;50.254;10.960;2023-09-18T05:52:33;97571.50;;;19.98;77.82
15884;BME280;8040;50.254;10.960;2023-09-18T05:54:59;97606.78;;;20.18;77.36
15884;BME280;8040;50.254;10.960;2023-09-18T05:57:24;97627.00;;;20.33;77.24
15884;BME280;8040;50.254;10.960;2023-09-18T05:59:50;97615.13;;;20.25;77.04
15884;BME280;8040;50.254;10.960;2023-09-18T06:02:15;97604.00;;;20.15;76.38
15884;BME280;8040;50.254;10.960;2023-09-18T06:04:42;97624.59;;;20.28;76.99
15884;BME280;8040;50.254;10.960;2023-09-18T06:07:07;97630.09;;;20.28;77.10
15884;BME280;8040;50.254;10.960;2023-09-18T06:09:32;97615.00;;;20.15;77.62
15884;BME280;8040;50.254;10.960;2023-09-18T06:11:58;97623.31;;;20.18;78.06
15884;BME280;8040;50.254;10.960;2023-09-18T06:14:24;97616.63;;;20.19;78.22
15884;BME280;8040;50.254;10.960;2023-09-18T06:16:50;97596.88;;;20.10;77.55
15884;BME280;8040;50.254;10.960;2023-09-18T06:19:16;97577.09;;;20.01;77.25
15884;BME280;8040;50.254;10.960;2023-09-18T06:21:44;97564.38;;;19.93;77.49
15884;BME280;8040;50.254;10.960;2023-09-18T06:24:10;97560.72;;;19.82;77.79
15884;BME280;8040;50.254;10.960;2023-09-18T06:26:35;97588.56;;;20.07;77.92
15884;BME280;8040;50.254;10.960;2023-09-18T06:29:01;97567.56;;;19.95;77.69
15884;BME280;8040;50.254;10.960;2023-09-18T06:31:27;97604.94;;;20.29;77.75
15884;BME280;8040;50.254;10.960;2023-09-18T06:33:53;97600.22;;;20.30;77.34
15884;BME280;8040;50.254;10.960;2023-09-18T06:36:18;97610.19;;;20.41;76.99
15884;BME280;8040;50.254;10.960;2023-09-18T06:38:44;97602.75;;;20.45;76.66
15884;BME280;8040;50.254;10.960;2023-09-18T06:41:09;97578.69;;;20.42;76.18
15884;BME280;8040;50.254;10.960;2023-09-18T06:43:35;97618.56;;;20.55;75.73
15884;BME280;8040;50.254;10.960;2023-09-18T06:46:00;97605.06;;;20.43;75.82
15884;BME280;8040;50.254;10.960;2023-09-18T06:48:25;97632.34;;;20.55;75.46
15884;BME280;8040;50.254;10.960;2023-09-18T06:50:54;97586.50;;;20.33;75.47
15884;BME280;8040;50.254;10.960;2023-09-18T06:53:19;97613.91;;;20.59;75.35
15884;BME280;8040;50.254;10.960;2023-09-18T06:55:44;97592.63;;;20.56;75.17
15884;BME280;8040;50.254;10.960;2023-09-18T06:58:10;97573.69;;;20.51;75.00
15884;BME280;8040;50.254;10.960;2023-09-18T07:00:35;97573.28;;;20.53;74.99
15884;BME280;8040;50.254;10.960;2023-09-18T07:03:01;97579.28;;;20.62;75.46
15884;BME280;8040;50.254;10.960;2023-09-18T07:05:26;97593.88;;;20.66;75.91
15884;BME280;8040;50.254;10.960;2023-09-18T07:07:51;97555.47;;;20.43;75.74
15884;BME280;8040;50.254;10.960;2023-09-18T07:10:17;97578.19;;;20.73;75.16
15884;BME280;8040;50.254;10.960;2023-09-18T07:12:42;97552.59;;;20.69;74.85
15884;BME280;8040;50.254;10.960;2023-09-18T07:15:08;97529.25;;;20.56;74.52
15884;BME280;8040;50.254;10.960;2023-09-18T07:17:33;97514.56;;;20.42;75.14
15884;BME280;8040;50.254;10.960;2023-09-18T07:20:00;97559.63;;;20.63;75.14
15884;BME280;8040;50.254;10.960;2023-09-18T07:22:25;97544.69;;;20.68;76.19
15884;BME280;8040;50.254;10.960;2023-09-18T07:24:51;97551.09;;;20.82;76.48
15884;BME280;8040;50.254;10.960;2023-09-18T07:27:16;97527.78;;;20.69;76.21
15884;BME280;8040;50.254;10.960;2023-09-18T07:29:41;97551.19;;;20.89;75.10
15884;BME280;8040;50.254;10.960;2023-09-18T07:32:07;97516.16;;;20.90;73.96
15884;BME280;8040;50.254;10.960;2023-09-18T07:34:37;97500.69;;;20.82;73.58
15884;BME280;8040;50.254;10.960;2023-09-18T07:37:02;97493.28;;;20.89;73.91
15884;BME280;8040;50.254;10.960;2023-09-18T07:39:28;97529.69;;;21.16;73.33
15884;BME280;8040;50.254;10.960;2023-09-18T07:41:54;97525.38;;;21.18;72.84
15884;BME280;8040;50.254;10.960;2023-09-18T07:44:21;97509.63;;;21.22;72.54
15884;BME280;8040;50.254;10.960;2023-09-18T07:46:47;97532.16;;;21.38;71.72
15884;BME280;8040;50.254;10.960;2023-09-18T07:49:13;97517.97;;;21.36;71.95
15884;BME280;8040;50.254;10.960;2023-09-18T07:51:39;97539.31;;;21.53;71.63
15884;BME280;8040;50.254;10.960;2023-09-18T07:54:04;97522.75;;;21.46;70.97
15884;BME280;8040;50.254;10.960;2023-09-18T07:56:30;97530.28;;;21.53;70.34
15884;BME280;8040;50.254;10.960;2023-09-18T07:58:58;97526.31;;;21.50;69.83
15884;BME280;8040;50.254;10.960;2023-09-18T08:01:24;97570.22;;;21.76;69.34
15884;BME280;8040;50.254;10.960;2023-09-18T08:03:49;97538.19;;;21.58;68.94
15884;BME280;8040;50.254;10.960;2023-09-18T08:06:14;97581.69;;;21.82;69.15
15884;BME280;8040;50.254;10.960;2023-09-18T08:08:50;97577.34;;;21.81;69.65
15884;BME280;8040;50.254;10.960;2023-09-18T08:11:15;97581.28;;;21.83;69.38
15884;BME280;8040;50.254;10.960;2023-09-18T08:13:40;97584.88;;;21.94;68.96
15884;BME280;8040;50.254;10.960;2023-09-18T08:16:06;97597.16;;;22.07;68.21
15884;BME280;8040;50.254;10.960;2023-09-18T08:18:32;97577.06;;;22.07;67.09
15884;BME280;8040;50.254;10.960;2023-09-18T08:20:57;97611.50;;;22.44;67.21
15884;BME280;8040;50.254;10.960;2023-09-18T08:23:26;97607.97;;;22.54;66.54
15884;BME280;8040;50.254;10.960;2023-09-18T08:25:52;97619.47;;;22.67;65.54
15884;BME280;8040;50.254;10.960;2023-09-18T08:28:20;97618.66;;;22.66;65.37
15884;BME280;8040;50.254;10.960;2023-09-18T08:30:49;97638.03;;;22.80;65.07
15884;BME280;8040;50.254;10.960;2023-09-18T08:33:14;97594.50;;;22.42;65.00
15884;BME280;8040;50.254;10.960;2023-09-18T08:35:40;97628.53;;;22.67;65.01
15884;BME280;8040;50.254;10.960;2023-09-18T08:38:05;97621.41;;;22.52;65.13
15884;BME280;8040;50.254;10.960;2023-09-18T08:40:31;97641.97;;;22.65;65.56
15884;BME280;8040;50.254;10.960;2023-09-18T08:42:58;97634.84;;;22.57;65.39
15884;BME280;8040;50.254;10.960;2023-09-18T08:45:44;97627.72;;;22.53;65.70
15884;BME280;8040;50.254;10.960;2023-09-18T08:48:11;97657.00;;;22.71;65.54
15884;BME280;8040;50.254;10.960;2023-09-18T08:50:37;97656.59;;;22.80;65.32
15884;BME280;8040;50.254;10.960;2023-09-18T08:53:04;97654.63;;;22.87;65.34
15884;BME280;8040;50.254;10.960;2023-09-18T08:55:29;97661.75;;;23.02;65.32
15884;BME280;8040;50.254;10.960;2023-09-18T08:57:58;97667.69;;;23.11;64.84
15884;BME280;8040;50.254;10.960;2023-09-18T09:00:25;97666.13;;;23.17;64.36
15884;BME280;8040;50.254;10.960;2023-09-18T09:02:50;97662.94;;;23.12;64.16
15884;BME280;8040;50.254;10.960;2023-09-18T09:05:17;97661.41;;;23.18;64.34
15884;BME280;8040;50.254;10.960;2023-09-18T09:07:43;97643.19;;;23.13;64.23
15884;BME280;8040;50.254;10.960;2023-09-18T09:10:09;97623.81;;;22.99;64.12
15884;BME280;8040;50.254;10.960;2023-09-18T09:15:15;97608.81;;;23.07;62.57
15884;BME280;8040;50.254;10.960;2023-09-18T09:17:42;97630.16;;;23.28;63.55
15884;BME280;8040;50.254;10.960;2023-09-18T09:20:12;97646.75;;;23.49;62.97
15884;BME280;8040;50.254;10.960;2023-09-18T09:22:42;97624.22;;;23.43;62.17
15884;BME280;8040;50.254;10.960;2023-09-18T09:27:45;97641.19;;;23.56;62.19
15884;BME280;8040;50.254;10.960;2023-09-18T09:30:11;97621.03;;;23.41;62.53
15884;BME280;8040;50.254;10.960;2023-09-18T09:32:36;97616.31;;;23.42;62.58
15884;BME280;8040;50.254;10.960;2023-09-18T09:35:02;97626.19;;;23.46;62.72
15884;BME280;8040;50.254;10.960;2023-09-18T09:37:32;97597.72;;;23.32;62.50
15884;BME280;8040;50.254;10.960;2023-09-18T09:40:03;97612.72;;;23.52;62.65
15884;BME280;8040;50.254;10.960;2023-09-18T09:42:38;97611.94;;;23.55;62.72
15884;BME280;8040;50.254;10.960;2023-09-18T09:45:10;97599.28;;;23.47;62.63
15884;BME280;8040;50.254;10.960;2023-09-18T09:47:37;97585.06;;;23.41;62.20
15884;BME280;8040;50.254;10.960;2023-09-18T09:50:13;97603.59;;;23.58;62.19
15884;BME280;8040;50.254;10.960;2023-09-18T09:52:47;97588.97;;;23.54;62.57
15884;BME280;8040;50.254;10.960;2023-09-18T09:55:33;97589.81;;;23.44;62.48
15884;BME280;8040;50.254;10.960;2023-09-18T09:58:06;97572.41;;;23.33;62.42
15884;BME280;8040;50.254;10.960;2023-09-18T10:00:41;97604.41;;;23.48;63.02
15884;BME280;8040;50.254;10.960;2023-09-18T10:03:09;97594.53;;;23.47;62.38
15884;BME280;8040;50.254;10.960;2023-09-18T10:05:37;97592.16;;;23.42;62.34
15884;BME280;8040;50.254;10.960;2023-09-18T10:10:40;97579.94;;;23.43;62.95
15884;BME280;8040;50.254;10.960;2023-09-18T10:13:10;97566.50;;;23.38;62.64
15884;BME280;8040;50.254;10.960;2023-09-18T10:15:38;97574.75;;;23.52;62.70
15884;BME280;8040;50.254;10.960;2023-09-18T10:18:08;97574.34;;;23.54;62.37
15884;BME280;8040;50.254;10.960;2023-09-18T10:20:39;97550.25;;;23.40;61.65
15884;BME280;8040;50.254;10.960;2023-09-18T10:23:14;97534.03;;;23.42;61.48
15884;BME280;8040;50.254;10.960;2023-09-18T10:25:45;97554.16;;;23.53;60.41
15884;BME280;8040;50.254;10.960;2023-09-18T10:28:17;97578.66;;;23.65;60.03
15884;BME280;8040;50.254;10.960;2023-09-18T10:30:44;97573.94;;;23.62;59.97
15884;BME280;8040;50.254;10.960;2023-09-18T10:33:09;97540.34;;;23.50;59.29
15884;BME280;8040;50.254;10.960;2023-09-18T10:35:35;97555.31;;;23.73;58.20
15884;BME280;8040;50.254;10.960;2023-09-18T10:38:02;97571.47;;;23.92;58.16
15884;BME280;8040;50.254;10.960;2023-09-18T10:40:29;97567.47;;;24.00;57.35
15884;BME280;8040;50.254;10.960;2023-09-18T10:42:57;97573.75;;;24.11;56.93
15884;BME280;8040;50.254;10.960;2023-09-18T10:45:24;97595.88;;;24.22;56.47
15884;BME280;8040;50.254;10.960;2023-09-18T10:47:50;97629.03;;;24.36;56.25
15884;BME280;8040;50.254;10.960;2023-09-18T10:50:24;97647.25;;;24.44;56.54
15884;BME280;8040;50.254;10.960;2023-09-18T10:52:53;97620.34;;;24.34;56.12
15884;BME280;8040;50.254;10.960;2023-09-18T10:55:19;97643.22;;;24.52;55.57
15884;BME280;8040;50.254;10.960;2023-09-18T10:57:54;97628.22;;;24.42;55.09
15884;BME280;8040;50.254;10.960;2023-09-18T11:00:22;97659.88;;;24.48;55.55
15884;BME280;8040;50.254;10.960;2023-09-18T11:05:38;97643.34;;;24.31;55.53
15884;BME280;8040;50.254;10.960;2023-09-18T11:08:35;97671.75;;;24.52;55.38
15884;BME280;8040;50.254;10.960;2023-09-18T11:11:10;97633.00;;;24.38;55.28
15884;BME280;8040;50.254;10.960;2023-09-18T11:13:44;97649.56;;;24.56;54.82
15884;BME280;8040;50.254;10.960;2023-09-18T11:16:36;97674.00;;;24.82;53.83
15884;BME280;8040;50.254;10.960;2023-09-18T11:24:17;97666.38;;;24.96;52.91
15884;BME280;8040;50.254;10.960;2023-09-18T11:26:45;97651.03;;;24.74;53.16
15884;BME280;8040;50.254;10.960;2023-09-18T11:29:14;97671.56;;;24.87;53.93
15884;BME280;8040;50.254;10.960;2023-09-18T11:31:47;97675.56;;;24.83;53.99
15884;BME280;8040;50.254;10.960;2023-09-18T11:34:22;97661.41;;;24.63;54.32
15884;BME280;8040;50.254;10.960;2023-09-18T11:36:48;97629.94;;;24.22;55.01
15884;BME280;8040;50.254;10.960;2023-09-18T11:39:33;97689.19;;;24.53;54.68
15884;BME280;8040;50.254;10.960;2023-09-18T11:42:13;97676.16;;;24.39;54.76
15884;BME280;8040;50.254;10.960;2023-09-18T11:44:41;97681.31;;;24.41;54.31
15884;BME280;8040;50.254;10.960;2023-09-18T11:47:08;97667.91;;;24.29;55.29
15884;BME280;8040;50.254;10.960;2023-09-18T11:49:38;97676.59;;;24.27;54.92
15884;BME280;8040;50.254;10.960;2023-09-18T11:52:07;97683.78;;;24.14;55.64
15884;BME280;8040;50.254;10.960;2023-09-18T11:54:32;97686.19;;;24.12;55.97
15884;BME280;8040;50.254;10.960;2023-09-18T11:57:03;97674.75;;;23.96;56.34
15884;BME280;8040;50.254;10.960;2023-09-18T11:59:41;97675.19;;;23.91;56.29
15884;BME280;8040;50.254;10.960;2023-09-18T12:02:09;97694.13;;;23.96;56.60
15884;BME280;8040;50.254;10.960;2023-09-18T12:04:36;97699.69;;;23.93;56.30
15884;BME280;8040;50.254;10.960;2023-09-18T12:07:04;97703.28;;;23.79;57.23
15884;BME280;8040;50.254;10.960;2023-09-18T12:09:30;97694.56;;;23.67;58.62
15884;BME280;8040;50.254;10.960;2023-09-18T12:11:58;97686.31;;;23.49;60.60
15884;BME280;8040;50.254;10.960;2023-09-18T12:14:30;97698.16;;;23.46;59.37
15884;BME280;8040;50.254;10.960;2023-09-18T12:16:56;97711.63;;;23.44;62.28
15884;BME280;8040;50.254;10.960;2023-09-18T12:19:22;97691.84;;;23.28;62.96
15884;BME280;8040;50.254;10.960;2023-09-18T12:21:48;97706.88;;;23.20;64.47
15884;BME280;8040;50.254;10.960;2023-09-18T12:24:24;97706.03;;;23.09;65.97
15884;BME280;8040;50.254;10.960;2023-09-18T12:26:58;97712.38;;;23.13;67.25
15884;BME280;8040;50.254;10.960;2023-09-18T12:29:24;97700.09;;;23.07;69.49
15884;BME280;8040;50.254;10.960;2023-09-18T12:31:49;97697.34;;;23.00;70.54
15884;BME280;8040;50.254;10.960;2023-09-18T12:34:18;97691.00;;;22.89;71.70
15884;BME280;8040;50.254;10.960;2023-09-18T12:36:44;97688.59;;;22.81;72.79
15884;BME280;8040;50.254;10.960;2023-09-18T12:39:13;97698.06;;;22.69;73.34
15884;BME280;8040;50.254;10.960;2023-09-18T12:41:42;97727.28;;;22.63;74.47
15884;BME280;8040;50.254;10.960;2023-09-18T12:44:08;97724.88;;;22.55;74.58
15884;BME280;8040;50.254;10.960;2023-09-18T12:46:35;97710.56;;;22.39;75.76
15884;BME280;8040;50.254;10.960;2023-09-18T12:49:22;97720.09;;;22.45;77.07
15884;BME280;8040;50.254;10.960;2023-09-18T12:52:02;97724.06;;;22.47;77.74
15884;BME280;8040;50.254;10.960;2023-09-18T12:54:40;97738.69;;;22.51;78.62
15884;BME280;8040;50.254;10.960;2023-09-18T12:57:07;97741.84;;;22.50;79.91
15884;BME280;8040;50.254;10.960;2023-09-18T12:59:34;97730.28;;;22.37;79.96
15884;BME280;8040;50.254;10.960;2023-09-18T13:02:04;97715.25;;;22.24;80.50
15884;BME280;8040;50.254;10.960;2023-09-18T13:04:32;97725.13;;;22.29;80.24
15884;BME280;8040;50.254;10.960;2023-09-18T13:07:07;97724.00;;;22.40;80.83
15884;BME280;8040;50.254;10.960;2023-09-18T13:09:34;97709.75;;;22.38;80.04
15884;BME280;8040;50.254;10.960;2023-09-18T13:12:00;97708.63;;;22.39;80.41
15884;BME280;8040;50.254;10.960;2023-09-18T13:14:26;97713.00;;;22.44;81.34
15884;BME280;8040;50.254;10.960;2023-09-18T13:16:52;97689.19;;;22.22;81.00
15884;BME280;8040;50.254;10.960;2023-09-18T13:19:18;97728.78;;;22.43;80.27
15884;BME280;8040;50.254;10.960;2023-09-18T13:21:48;97700.31;;;22.36;80.55
15884;BME280;8040;50.254;10.960;2023-09-18T13:24:32;97699.53;;;22.42;80.24
15884;BME280;8040;50.254;10.960;2023-09-18T13:26:58;97690.81;;;22.33;79.25